Aeroporto :
LOGIN :

Iscrizione | Disclaimer

   EN    FR    IT 

 










Sommario :    VFR   VFR Marginale   IFR   IFR Intensivo   IFR Molto Intensivo
Visibilità : 
Base nubi : 
>= 8 km
>= 3000ft
5 / 8 km
1000 / 3000 ft
1500m / 5 km
500 / 1000 ft
800 / 1500m
200 / 500 ft
< 800m
< 200 ft
Simboli :   Temporali  Nebbia  Neve Forte  Precipitazioni Forti  Vento > 20 kt
SIGMETs :   Varie  Temporali  Ghiacco  Turbolenza  Onda orograficha  Ceneri Vulcaniche






- Altitudine del aeroporto : 681 ft
- Codice IATA : OSL


ENGM - Oslo Gardermoen

ULTIMO METAR :
  • 200450Z 03004KT 600 R19R/0800N R01R/0700N R19L/0900U R01L/0550D FZFG VV001 M02/M03 Q1019 TEMPO 400 FZFG

METARs OBSOLETI :
  • 200420Z 36003KT 330V030 9999 0900NE R19R/P2000N R01R/P2000N R19L/1200D R01L/P2000N BCFG SCT004 M02/M02 Q1018
  • 200350Z 34005KT 9999 4500NE FEW002 M01/M02 Q1018
  • 200320Z 34005KT CAVOK M01/M02 Q1017
  • 200250Z 33007KT CAVOK M01/M01 Q1017
  • 200220Z 32005KT CAVOK M01/M01 Q1016
  • 200150Z 34004KT CAVOK M01/M01 Q1016

TAF TAF ENGM
Valido dal 20 a 00 ore il 21 a 00 ore UTC


2000/2024 36007KT 9999 FEW001 SCT040
PROB40 2000/2008 0500 FZFG VV002
BECMG 2007/2009 -DZ BKN010
TEMPO 2008/2024 2000 BR BKN004



MetMap, La meteo Aeronautica in un colpo d'occhio ! - Copyright ORBIFLY Dicembre 2007 - Disclaimer

ORBIFLY MET'MAP TEAM :

Programmazione e sviluppo : Alexandra Zaïnal
Concezione e sviluppo : Baudouin d'Aumeries
Co-Programmazione e sviluppo : Marc-Olivier Méhu
Supporto tecnico e logistico : Manuel Goepfert
Aiuto per la traduzione : Arnaldo La Scala

Contatto : metmap@orbifly.com




FONTI E CREDITI :

   NOAA